sensor_id;sensor_type;location;lat;lon;timestamp;pressure;altitude;pressure_sealevel;temperature;humidity
44027;BME280;29696;55.698;37.460;2023-03-01T00:01:51;98705.84;;;-5.98;60.60
44027;BME280;29696;55.698;37.460;2023-03-01T00:04:17;98704.94;;;-5.97;60.32
44027;BME280;29696;55.698;37.460;2023-03-01T00:06:43;98707.50;;;-5.97;60.60
44027;BME280;29696;55.698;37.460;2023-03-01T00:09:13;98700.72;;;-5.99;60.27
44027;BME280;29696;55.698;37.460;2023-03-01T00:11:39;98704.22;;;-6.00;60.33
44027;BME280;29696;55.698;37.460;2023-03-01T00:14:06;98706.78;;;-6.00;60.46
44027;BME280;29696;55.698;37.460;2023-03-01T00:16:38;98710.19;;;-6.00;60.63
44027;BME280;29696;55.698;37.460;2023-03-01T00:19:11;98705.09;;;-6.01;60.67
44027;BME280;29696;55.698;37.460;2023-03-01T00:21:38;98704.25;;;-6.02;60.72
44027;BME280;29696;55.698;37.460;2023-03-01T00:24:04;98694.91;;;-6.04;60.87
44027;BME280;29696;55.698;37.460;2023-03-01T00:26:31;98698.38;;;-6.05;60.68
44027;BME280;29696;55.698;37.460;2023-03-01T00:28:58;98695.91;;;-6.08;60.63
44027;BME280;29696;55.698;37.460;2023-03-01T00:31:28;98690.03;;;-6.12;60.76
44027;BME280;29696;55.698;37.460;2023-03-01T00:34:04;98705.38;;;-6.09;61.12
44027;BME280;29696;55.698;37.460;2023-03-01T00:36:33;98698.56;;;-6.10;60.98
44027;BME280;29696;55.698;37.460;2023-03-01T00:39:01;98702.09;;;-6.14;61.00
44027;BME280;29696;55.698;37.460;2023-03-01T00:41:27;98693.63;;;-6.16;61.10
44027;BME280;29696;55.698;37.460;2023-03-01T00:43:54;98698.75;;;-6.16;61.10
44027;BME280;29696;55.698;37.460;2023-03-01T00:46:23;98692.00;;;-6.18;61.25
44027;BME280;29696;55.698;37.460;2023-03-01T00:48:51;98697.16;;;-6.20;61.18
44027;BME280;29696;55.698;37.460;2023-03-01T00:51:23;98692.88;;;-6.20;61.27
44027;BME280;29696;55.698;37.460;2023-03-01T00:53:51;98689.56;;;-6.23;61.10
44027;BME280;29696;55.698;37.460;2023-03-01T00:56:18;98682.75;;;-6.24;61.22
44027;BME280;29696;55.698;37.460;2023-03-01T00:58:45;98687.06;;;-6.25;61.21
44027;BME280;29696;55.698;37.460;2023-03-01T01:01:19;98682.75;;;-6.24;61.51
44027;BME280;29696;55.698;37.460;2023-03-01T01:04:10;98686.88;;;-6.20;61.71
44027;BME280;29696;55.698;37.460;2023-03-01T01:06:40;98680.22;;;-6.26;61.86
44027;BME280;29696;55.698;37.460;2023-03-01T01:09:09;98678.59;;;-6.28;61.74
44027;BME280;29696;55.698;37.460;2023-03-01T01:11:50;98673.44;;;-6.28;61.85
44027;BME280;29696;55.698;37.460;2023-03-01T01:14:18;98680.41;;;-6.30;62.04
44027;BME280;29696;55.698;37.460;2023-03-01T01:16:45;98683.00;;;-6.32;62.06
44027;BME280;29696;55.698;37.460;2023-03-01T01:19:11;98676.13;;;-6.31;61.95
44027;BME280;29696;55.698;37.460;2023-03-01T01:21:38;98679.50;;;-6.29;62.17
44027;BME280;29696;55.698;37.460;2023-03-01T01:24:04;98681.16;;;-6.28;62.15
44027;BME280;29696;55.698;37.460;2023-03-01T01:26:33;98676.03;;;-6.28;62.00
44027;BME280;29696;55.698;37.460;2023-03-01T01:29:01;98680.41;;;-6.30;62.14
44027;BME280;29696;55.698;37.460;2023-03-01T01:31:29;98685.63;;;-6.33;62.30
44027;BME280;29696;55.698;37.460;2023-03-01T01:33:58;98690.00;;;-6.35;62.39
44027;BME280;29696;55.698;37.460;2023-03-01T01:36:25;98691.81;;;-6.39;62.59
44027;BME280;29696;55.698;37.460;2023-03-01T01:38:52;98696.13;;;-6.39;62.62
44027;BME280;29696;55.698;37.460;2023-03-01T01:41:20;98688.53;;;-6.43;62.60
44027;BME280;29696;55.698;37.460;2023-03-01T01:43:49;98692.88;;;-6.45;62.58
44027;BME280;29696;55.698;37.460;2023-03-01T01:46:36;98688.63;;;-6.46;62.88
44027;BME280;29696;55.698;37.460;2023-03-01T01:49:28;98692.06;;;-6.47;63.04
44027;BME280;29696;55.698;37.460;2023-03-01T01:52:04;98699.78;;;-6.47;63.03
44027;BME280;29696;55.698;37.460;2023-03-01T01:57:41;98689.47;;;-6.45;63.36
44027;BME280;29696;55.698;37.460;2023-03-01T02:00:16;98692.91;;;-6.46;63.31
44027;BME280;29696;55.698;37.460;2023-03-01T02:02:44;98689.56;;;-6.48;63.36
44027;BME280;29696;55.698;37.460;2023-03-01T02:08:11;98684.44;;;-6.48;63.51
44027;BME280;29696;55.698;37.460;2023-03-01T02:10:39;98678.69;;;-6.56;63.57
44027;BME280;29696;55.698;37.460;2023-03-01T02:13:07;98680.44;;;-6.57;63.45
44027;BME280;29696;55.698;37.460;2023-03-01T02:15:34;98683.03;;;-6.58;63.56
44027;BME280;29696;55.698;37.460;2023-03-01T02:18:04;98679.72;;;-6.62;63.41
44027;BME280;29696;55.698;37.460;2023-03-01T02:23:49;98679.94;;;-6.68;63.77
44027;BME280;29696;55.698;37.460;2023-03-01T02:26:54;98687.53;;;-6.65;64.40
44027;BME280;29696;55.698;37.460;2023-03-01T02:29:25;98692.78;;;-6.68;64.61
44027;BME280;29696;55.698;37.460;2023-03-01T02:31:54;98694.53;;;-6.69;64.52
44027;BME280;29696;55.698;37.460;2023-03-01T02:34:25;98697.19;;;-6.72;64.34
44027;BME280;29696;55.698;37.460;2023-03-01T02:36:57;98698.94;;;-6.72;64.47
44027;BME280;29696;55.698;37.460;2023-03-01T02:39:33;98698.22;;;-6.77;64.64
44027;BME280;29696;55.698;37.460;2023-03-01T02:42:01;98696.66;;;-6.81;65.06
44027;BME280;29696;55.698;37.460;2023-03-01T02:44:28;98696.78;;;-6.86;65.16
44027;BME280;29696;55.698;37.460;2023-03-01T02:46:56;98706.22;;;-6.86;65.28
44027;BME280;29696;55.698;37.460;2023-03-01T02:49:33;98693.47;;;-6.90;65.55
44027;BME280;29696;55.698;37.460;2023-03-01T02:55:11;98705.44;;;-6.89;65.87
44027;BME280;29696;55.698;37.460;2023-03-01T02:57:45;98704.75;;;-6.94;66.09
44027;BME280;29696;55.698;37.460;2023-03-01T03:00:15;98689.56;;;-7.01;66.14
44027;BME280;29696;55.698;37.460;2023-03-01T03:02:48;98708.34;;;-6.99;66.22
44027;BME280;29696;55.698;37.460;2023-03-01T03:05:37;98711.69;;;-6.97;66.46
44027;BME280;29696;55.698;37.460;2023-03-01T03:08:04;98707.63;;;-7.04;66.34
44027;BME280;29696;55.698;37.460;2023-03-01T03:10:39;98711.03;;;-7.04;66.51
44027;BME280;29696;55.698;37.460;2023-03-01T03:13:11;98712.81;;;-7.06;66.54
44027;BME280;29696;55.698;37.460;2023-03-01T03:15:40;98709.56;;;-7.11;66.74
44027;BME280;29696;55.698;37.460;2023-03-01T03:18:10;98707.88;;;-7.12;66.78
44027;BME280;29696;55.698;37.460;2023-03-01T03:20:39;98713.88;;;-7.12;66.82
44027;BME280;29696;55.698;37.460;2023-03-01T03:23:06;98705.47;;;-7.18;66.84
44027;BME280;29696;55.698;37.460;2023-03-01T03:25:32;98711.50;;;-7.18;67.09
44027;BME280;29696;55.698;37.460;2023-03-01T03:28:04;98709.84;;;-7.20;67.46
44027;BME280;29696;55.698;37.460;2023-03-01T03:30:38;98712.41;;;-7.20;67.50
44027;BME280;29696;55.698;37.460;2023-03-01T03:33:08;98721.88;;;-7.22;67.54
44027;BME280;29696;55.698;37.460;2023-03-01T03:35:40;98724.41;;;-7.21;67.78
44027;BME280;29696;55.698;37.460;2023-03-01T03:38:09;98725.34;;;-7.23;67.85
44027;BME280;29696;55.698;37.460;2023-03-01T03:43:31;98724.56;;;-7.27;67.75
44027;BME280;29696;55.698;37.460;2023-03-01T03:45:58;98727.22;;;-7.30;67.80
44027;BME280;29696;55.698;37.460;2023-03-01T03:48:25;98728.28;;;-7.36;67.95
44027;BME280;29696;55.698;37.460;2023-03-01T03:50:55;98726.63;;;-7.38;68.33
44027;BME280;29696;55.698;37.460;2023-03-01T03:53:23;98728.38;;;-7.39;68.34
44027;BME280;29696;55.698;37.460;2023-03-01T03:55:50;98731.78;;;-7.38;68.25
44027;BME280;29696;55.698;37.460;2023-03-01T03:58:18;98724.09;;;-7.40;68.45
44027;BME280;29696;55.698;37.460;2023-03-01T04:00:46;98721.69;;;-7.44;68.44
44027;BME280;29696;55.698;37.460;2023-03-01T04:03:14;98729.31;;;-7.43;68.52
44027;BME280;29696;55.698;37.460;2023-03-01T04:05:42;98729.31;;;-7.43;68.52
44027;BME280;29696;55.698;37.460;2023-03-01T04:08:08;98720.06;;;-7.48;69.17
44027;BME280;29696;55.698;37.460;2023-03-01T04:10:40;98730.25;;;-7.45;69.11
44027;BME280;29696;55.698;37.460;2023-03-01T04:13:10;98733.59;;;-7.42;69.24
44027;BME280;29696;55.698;37.460;2023-03-01T04:15:37;98738.66;;;-7.40;69.27
44027;BME280;29696;55.698;37.460;2023-03-01T04:18:03;98735.19;;;-7.39;69.35
44027;BME280;29696;55.698;37.460;2023-03-01T04:20:33;98733.41;;;-7.36;69.25
44027;BME280;29696;55.698;37.460;2023-03-01T04:23:05;98733.25;;;-7.31;69.18
44027;BME280;29696;55.698;37.460;2023-03-01T04:25:38;98745.97;;;-7.26;69.20
44027;BME280;29696;55.698;37.460;2023-03-01T04:28:05;98744.09;;;-7.21;69.22
44027;BME280;29696;55.698;37.460;2023-03-01T04:30:31;98743.22;;;-7.20;68.82
44027;BME280;29696;55.698;37.460;2023-03-01T04:33:03;98748.91;;;-7.10;68.82
44027;BME280;29696;55.698;37.460;2023-03-01T04:35:31;98736.09;;;-7.12;68.94
44027;BME280;29696;55.698;37.460;2023-03-01T04:37:57;98747.72;;;-6.99;68.86
44027;BME280;29696;55.698;37.460;2023-03-01T04:40:24;98748.09;;;-6.56;68.92
44027;BME280;29696;55.698;37.460;2023-03-01T04:42:51;98755.66;;;-5.77;68.62
44027;BME280;29696;55.698;37.460;2023-03-01T04:45:17;98749.41;;;-5.00;65.90
44027;BME280;29696;55.698;37.460;2023-03-01T04:47:45;98749.53;;;-4.17;62.52
44027;BME280;29696;55.698;37.460;2023-03-01T04:50:15;98745.13;;;-3.74;59.29
44027;BME280;29696;55.698;37.460;2023-03-01T04:52:43;98749.97;;;-3.67;57.92
44027;BME280;29696;55.698;37.460;2023-03-01T04:55:10;98748.88;;;-3.23;57.38
44027;BME280;29696;55.698;37.460;2023-03-01T04:57:38;98744.38;;;-2.99;55.88
44027;BME280;29696;55.698;37.460;2023-03-01T05:00:08;98749.88;;;-3.07;56.21
44027;BME280;29696;55.698;37.460;2023-03-01T05:02:52;98754.44;;;-2.57;55.70
44027;BME280;29696;55.698;37.460;2023-03-01T05:05:46;98759.47;;;-2.36;56.05
44027;BME280;29696;55.698;37.460;2023-03-01T05:08:13;98755.09;;;-2.53;55.15
44027;BME280;29696;55.698;37.460;2023-03-01T05:10:49;98760.09;;;-1.96;54.69
44027;BME280;29696;55.698;37.460;2023-03-01T05:13:18;98761.28;;;-1.69;53.62
44027;BME280;29696;55.698;37.460;2023-03-01T05:15:58;98762.88;;;-1.66;52.96
44027;BME280;29696;55.698;37.460;2023-03-01T05:18:27;98766.97;;;-1.62;52.13
44027;BME280;29696;55.698;37.460;2023-03-01T05:20:55;98770.81;;;-1.69;52.21
44027;BME280;29696;55.698;37.460;2023-03-01T05:23:25;98765.09;;;-1.58;51.76
44027;BME280;29696;55.698;37.460;2023-03-01T05:25:51;98764.47;;;-1.30;51.98
44027;BME280;29696;55.698;37.460;2023-03-01T05:28:19;98773.94;;;-1.47;51.36
44027;BME280;29696;55.698;37.460;2023-03-01T05:30:47;98775.47;;;-1.76;51.61
44027;BME280;29696;55.698;37.460;2023-03-01T05:33:13;98777.53;;;-2.00;52.10
44027;BME280;29696;55.698;37.460;2023-03-01T05:35:41;98779.03;;;-2.13;52.29
44027;BME280;29696;55.698;37.460;2023-03-01T05:38:09;98779.31;;;-2.37;52.60
44027;BME280;29696;55.698;37.460;2023-03-01T05:40:40;98787.13;;;-2.56;53.78
44027;BME280;29696;55.698;37.460;2023-03-01T05:43:07;98792.66;;;-2.63;53.99
44027;BME280;29696;55.698;37.460;2023-03-01T05:45:36;98790.22;;;-2.66;53.96
44027;BME280;29696;55.698;37.460;2023-03-01T05:48:03;98793.47;;;-2.80;53.37
44027;BME280;29696;55.698;37.460;2023-03-01T05:50:37;98797.41;;;-2.73;54.08
44027;BME280;29696;55.698;37.460;2023-03-01T05:53:09;98807.66;;;-2.89;53.89
44027;BME280;29696;55.698;37.460;2023-03-01T05:55:36;98796.53;;;-2.91;54.07
44027;BME280;29696;55.698;37.460;2023-03-01T05:58:05;98797.34;;;-2.90;54.02
44027;BME280;29696;55.698;37.460;2023-03-01T06:00:33;98799.06;;;-2.89;54.05
44027;BME280;29696;55.698;37.460;2023-03-01T06:03:00;98796.09;;;-2.82;54.30
44027;BME280;29696;55.698;37.460;2023-03-01T06:05:27;98804.16;;;-2.69;53.93
44027;BME280;29696;55.698;37.460;2023-03-01T06:07:54;98795.25;;;-2.63;53.29
44027;BME280;29696;55.698;37.460;2023-03-01T06:10:22;98806.06;;;-2.55;53.15
44027;BME280;29696;55.698;37.460;2023-03-01T06:12:48;98815.09;;;-2.27;53.52
44027;BME280;29696;55.698;37.460;2023-03-01T06:15:16;98807.22;;;-2.07;52.34
44027;BME280;29696;55.698;37.460;2023-03-01T06:17:44;98811.50;;;-2.06;51.50
44027;BME280;29696;55.698;37.460;2023-03-01T06:20:32;98814.84;;;-1.87;52.23
44027;BME280;29696;55.698;37.460;2023-03-01T06:22:58;98820.97;;;-2.07;52.02
44027;BME280;29696;55.698;37.460;2023-03-01T06:25:26;98825.28;;;-1.88;51.86
44027;BME280;29696;55.698;37.460;2023-03-01T06:27:53;98821.84;;;-1.71;52.15
44027;BME280;29696;55.698;37.460;2023-03-01T06:30:21;98812.53;;;-1.58;50.68
44027;BME280;29696;55.698;37.460;2023-03-01T06:32:48;98819.88;;;-1.00;49.79
44027;BME280;29696;55.698;37.460;2023-03-01T06:35:15;98823.75;;;-0.59;48.75
44027;BME280;29696;55.698;37.460;2023-03-01T06:37:46;98819.78;;;-0.19;48.46
44027;BME280;29696;55.698;37.460;2023-03-01T06:40:14;98816.44;;;0.39;46.66
44027;BME280;29696;55.698;37.460;2023-03-01T06:42:42;98818.88;;;0.71;46.32
44027;BME280;29696;55.698;37.460;2023-03-01T06:45:10;98818.31;;;0.95;45.38
44027;BME280;29696;55.698;37.460;2023-03-01T06:47:36;98822.09;;;1.32;43.92
44027;BME280;29696;55.698;37.460;2023-03-01T06:50:03;98818.63;;;2.40;42.22
44027;BME280;29696;55.698;37.460;2023-03-01T06:52:29;98808.84;;;4.03;39.78
44027;BME280;29696;55.698;37.460;2023-03-01T06:54:56;98814.06;;;5.08;38.52
44027;BME280;29696;55.698;37.460;2023-03-01T06:57:22;98811.44;;;5.96;36.25
44027;BME280;29696;55.698;37.460;2023-03-01T06:59:48;98802.78;;;7.89;33.36
44027;BME280;29696;55.698;37.460;2023-03-01T07:02:15;98807.78;;;8.60;31.63
44027;BME280;29696;55.698;37.460;2023-03-01T07:04:41;98814.78;;;9.26;30.06
44027;BME280;29696;55.698;37.460;2023-03-01T07:07:08;98813.47;;;7.88;30.98
44027;BME280;29696;55.698;37.460;2023-03-01T07:09:35;98815.63;;;6.82;32.02
44027;BME280;29696;55.698;37.460;2023-03-01T07:12:01;98826.06;;;6.52;33.40
44027;BME280;29696;55.698;37.460;2023-03-01T07:14:27;98821.97;;;6.59;33.40
44027;BME280;29696;55.698;37.460;2023-03-01T07:16:54;98836.09;;;5.93;34.78
44027;BME280;29696;55.698;37.460;2023-03-01T07:19:21;98839.69;;;6.88;33.63
44027;BME280;29696;55.698;37.460;2023-03-01T07:21:48;98827.03;;;8.03;31.30
44027;BME280;29696;55.698;37.460;2023-03-01T07:24:14;98831.47;;;9.72;29.25
44027;BME280;29696;55.698;37.460;2023-03-01T07:26:40;98827.69;;;11.51;26.53
44027;BME280;29696;55.698;37.460;2023-03-01T07:29:07;98831.50;;;12.97;25.27
44027;BME280;29696;55.698;37.460;2023-03-01T07:31:36;98840.56;;;13.66;23.80
44027;BME280;29696;55.698;37.460;2023-03-01T07:34:03;98838.56;;;14.54;22.80
44027;BME280;29696;55.698;37.460;2023-03-01T07:36:30;98832.88;;;14.34;22.49
44027;BME280;29696;55.698;37.460;2023-03-01T07:38:56;98832.34;;;15.29;21.48
44027;BME280;29696;55.698;37.460;2023-03-01T07:41:23;98835.97;;;15.58;20.68
44027;BME280;29696;55.698;37.460;2023-03-01T07:43:50;98845.41;;;15.90;20.80
44027;BME280;29696;55.698;37.460;2023-03-01T07:46:16;98844.59;;;13.62;21.95
44027;BME280;29696;55.698;37.460;2023-03-01T07:48:44;98854.50;;;13.13;22.71
44027;BME280;29696;55.698;37.460;2023-03-01T07:51:10;98861.81;;;12.13;23.90
44027;BME280;29696;55.698;37.460;2023-03-01T07:53:37;98861.00;;;12.94;23.28
44027;BME280;29696;55.698;37.460;2023-03-01T07:56:08;98867.22;;;13.42;23.22
44027;BME280;29696;55.698;37.460;2023-03-01T07:58:36;98851.50;;;14.03;22.16
44027;BME280;29696;55.698;37.460;2023-03-01T08:01:07;98859.91;;;14.14;21.75
44027;BME280;29696;55.698;37.460;2023-03-01T08:03:34;98855.47;;;14.07;21.55
44027;BME280;29696;55.698;37.460;2023-03-01T08:06:05;98860.50;;;14.71;21.87
44027;BME280;29696;55.698;37.460;2023-03-01T08:08:33;98867.00;;;12.71;22.93
44027;BME280;29696;55.698;37.460;2023-03-01T08:11:00;98864.69;;;12.60;22.78
44027;BME280;29696;55.698;37.460;2023-03-01T08:13:28;98857.22;;;12.55;23.04
44027;BME280;29696;55.698;37.460;2023-03-01T08:15:54;98862.78;;;12.03;23.25
44027;BME280;29696;55.698;37.460;2023-03-01T08:18:26;98854.25;;;11.07;24.23
44027;BME280;29696;55.698;37.460;2023-03-01T08:20:52;98855.34;;;10.16;25.33
44027;BME280;29696;55.698;37.460;2023-03-01T08:23:18;98869.19;;;8.71;26.66
44027;BME280;29696;55.698;37.460;2023-03-01T08:25:44;98866.78;;;7.90;27.89
44027;BME280;29696;55.698;37.460;2023-03-01T08:28:11;98870.28;;;7.60;28.91
44027;BME280;29696;55.698;37.460;2023-03-01T08:30:37;98872.34;;;7.16;29.83
44027;BME280;29696;55.698;37.460;2023-03-01T08:33:03;98864.28;;;6.45;30.85
44027;BME280;29696;55.698;37.460;2023-03-01T08:35:30;98868.44;;;5.49;32.04
44027;BME280;29696;55.698;37.460;2023-03-01T08:37:56;98879.44;;;4.63;34.21
44027;BME280;29696;55.698;37.460;2023-03-01T08:40:22;98879.06;;;3.97;35.34
44027;BME280;29696;55.698;37.460;2023-03-01T08:42:49;98882.28;;;3.27;36.09
44027;BME280;29696;55.698;37.460;2023-03-01T08:45:15;98876.00;;;2.65;37.24
44027;BME280;29696;55.698;37.460;2023-03-01T08:47:44;98888.94;;;1.87;38.87
44027;BME280;29696;55.698;37.460;2023-03-01T08:50:11;98883.91;;;1.43;40.27
44027;BME280;29696;55.698;37.460;2023-03-01T08:52:37;98880.59;;;1.12;41.35
44027;BME280;29696;55.698;37.460;2023-03-01T08:55:04;98888.75;;;1.06;42.11
44027;BME280;29696;55.698;37.460;2023-03-01T08:57:30;98891.72;;;1.00;42.66
44027;BME280;29696;55.698;37.460;2023-03-01T08:59:56;98896.63;;;0.76;42.62
44027;BME280;29696;55.698;37.460;2023-03-01T09:02:23;98898.56;;;0.72;43.60
44027;BME280;29696;55.698;37.460;2023-03-01T09:04:49;98902.91;;;0.72;43.60
44027;BME280;29696;55.698;37.460;2023-03-01T09:07:15;98903.47;;;0.62;43.98
44027;BME280;29696;55.698;37.460;2023-03-01T09:09:42;98915.72;;;0.60;44.44
44027;BME280;29696;55.698;37.460;2023-03-01T09:12:08;98906.69;;;0.52;43.52
44027;BME280;29696;55.698;37.460;2023-03-01T09:14:34;98914.44;;;0.37;43.92
44027;BME280;29696;55.698;37.460;2023-03-01T09:17:03;98904.19;;;0.04;44.10
44027;BME280;29696;55.698;37.460;2023-03-01T09:19:29;98905.53;;;-0.36;45.09
44027;BME280;29696;55.698;37.460;2023-03-01T09:21:56;98920.78;;;-0.62;46.62
44027;BME280;29696;55.698;37.460;2023-03-01T09:24:24;98911.44;;;-0.82;46.87
44027;BME280;29696;55.698;37.460;2023-03-01T09:26:54;98900.03;;;-0.95;47.69
44027;BME280;29696;55.698;37.460;2023-03-01T09:29:22;98907.06;;;-1.15;47.66
44027;BME280;29696;55.698;37.460;2023-03-01T09:31:48;98907.78;;;-1.28;47.99
44027;BME280;29696;55.698;37.460;2023-03-01T09:34:15;98915.72;;;-1.31;48.58
44027;BME280;29696;55.698;37.460;2023-03-01T09:36:45;98909.63;;;-1.48;48.89
44027;BME280;29696;55.698;37.460;2023-03-01T09:39:11;98909.44;;;-1.62;49.67
44027;BME280;29696;55.698;37.460;2023-03-01T09:42:02;98905.25;;;-1.65;50.12
44027;BME280;29696;55.698;37.460;2023-03-01T09:44:54;98895.16;;;-1.52;50.37
44027;BME280;29696;55.698;37.460;2023-03-01T09:47:31;98909.91;;;-1.36;50.86
44027;BME280;29696;55.698;37.460;2023-03-01T09:50:18;98894.69;;;-1.25;50.71
44027;BME280;29696;55.698;37.460;2023-03-01T09:52:50;98903.03;;;-1.20;49.93
44027;BME280;29696;55.698;37.460;2023-03-01T09:55:26;98910.63;;;-1.00;50.59
44027;BME280;29696;55.698;37.460;2023-03-01T10:00:48;98917.44;;;-0.81;50.64
44027;BME280;29696;55.698;37.460;2023-03-01T10:03:58;98924.84;;;-0.74;49.83
44027;BME280;29696;55.698;37.460;2023-03-01T10:06:23;98926.81;;;-0.95;49.50
44027;BME280;29696;55.698;37.460;2023-03-01T10:09:13;98923.75;;;-0.70;49.87
44027;BME280;29696;55.698;37.460;2023-03-01T10:11:52;98925.84;;;-0.76;50.53
44027;BME280;29696;55.698;37.460;2023-03-01T10:18:15;98951.25;;;-0.50;49.25
44027;BME280;29696;55.698;37.460;2023-03-01T10:21:08;98935.44;;;-0.45;49.49
44027;BME280;29696;55.698;37.460;2023-03-01T10:23:38;98938.44;;;-0.53;48.65
44027;BME280;29696;55.698;37.460;2023-03-01T10:26:34;98929.66;;;-0.34;48.93
44027;BME280;29696;55.698;37.460;2023-03-01T10:31:52;98938.63;;;-0.24;48.32
44027;BME280;29696;55.698;37.460;2023-03-01T10:37:32;98933.59;;;0.05;48.25
44027;BME280;29696;55.698;37.460;2023-03-01T10:40:07;98930.59;;;-0.04;48.14
44027;BME280;29696;55.698;37.460;2023-03-01T10:42:46;98930.94;;;0.06;47.95
44027;BME280;29696;55.698;37.460;2023-03-01T10:49:15;98922.69;;;0.14;47.74
44027;BME280;29696;55.698;37.460;2023-03-01T10:51:46;98938.53;;;-0.07;47.60
44027;BME280;29696;55.698;37.460;2023-03-01T10:54:22;98929.84;;;-0.06;46.94
44027;BME280;29696;55.698;37.460;2023-03-01T10:56:54;98929.28;;;-0.27;47.36
44027;BME280;29696;55.698;37.460;2023-03-01T10:59:41;98933.78;;;-0.14;47.86
44027;BME280;29696;55.698;37.460;2023-03-01T11:02:28;98938.44;;;-0.21;48.07
44027;BME280;29696;55.698;37.460;2023-03-01T11:05:20;98938.44;;;-0.21;47.72
44027;BME280;29696;55.698;37.460;2023-03-01T11:07:52;98939.22;;;-0.35;47.66
44027;BME280;29696;55.698;37.460;2023-03-01T11:10:22;98935.47;;;-0.29;47.67
44027;BME280;29696;55.698;37.460;2023-03-01T11:12:50;98928.69;;;0.00;47.42
44027;BME280;29696;55.698;37.460;2023-03-01T11:15:35;98928.91;;;0.27;46.62
44027;BME280;29696;55.698;37.460;2023-03-01T11:18:02;98922.81;;;0.12;45.90
44027;BME280;29696;55.698;37.460;2023-03-01T11:20:34;98925.25;;;0.30;46.42
44027;BME280;29696;55.698;37.460;2023-03-01T11:23:09;98929.94;;;0.39;45.82
44027;BME280;29696;55.698;37.460;2023-03-01T11:25:39;98937.13;;;0.50;45.54
44027;BME280;29696;55.698;37.460;2023-03-01T11:28:12;98931.59;;;0.56;46.04
44027;BME280;29696;55.698;37.460;2023-03-01T11:31:05;98938.00;;;0.64;45.89
44027;BME280;29696;55.698;37.460;2023-03-01T11:33:54;98930.28;;;0.49;46.25
44027;BME280;29696;55.698;37.460;2023-03-01T11:36:52;98931.81;;;0.37;45.92
44027;BME280;29696;55.698;37.460;2023-03-01T11:39:49;98936.13;;;0.06;46.18
44027;BME280;29696;55.698;37.460;2023-03-01T11:42:21;98923.47;;;-0.16;46.50
44027;BME280;29696;55.698;37.460;2023-03-01T11:44:54;98926.06;;;-0.16;46.61
44027;BME280;29696;55.698;37.460;2023-03-01T11:50:57;98941.06;;;0.11;46.41
44027;BME280;29696;55.698;37.460;2023-03-01T11:53:51;98947.34;;;0.07;46.61
44027;BME280;29696;55.698;37.460;2023-03-01T11:56:35;98935.19;;;0.07;46.17
44027;BME280;29696;55.698;37.460;2023-03-01T12:14:40;98949.91;;;0.38;46.22
44027;BME280;29696;55.698;37.460;2023-03-01T12:30:13;98936.97;;;0.07;46.04
44027;BME280;29696;55.698;37.460;2023-03-01T12:33:14;98956.56;;;0.12;45.85
44027;BME280;29696;55.698;37.460;2023-03-01T12:49:13;98952.97;;;-0.17;46.56
44027;BME280;29696;55.698;37.460;2023-03-01T12:52:11;98953.69;;;-0.31;46.62
44027;BME280;29696;55.698;37.460;2023-03-01T12:55:01;98957.47;;;-0.36;47.15
44027;BME280;29696;55.698;37.460;2023-03-01T12:58:20;98953.69;;;-0.31;47.95
44027;BME280;29696;55.698;37.460;2023-03-01T13:04:29;98965.25;;;-0.36;46.86
44027;BME280;29696;55.698;37.460;2023-03-01T13:19:16;98955.97;;;-0.74;48.05
44027;BME280;29696;55.698;37.460;2023-03-01T13:21:44;98951.28;;;-1.00;49.32
44027;BME280;29696;55.698;37.460;2023-03-01T13:24:49;98952.81;;;-0.96;50.19
44027;BME280;29696;55.698;37.460;2023-03-01T13:27:26;98945.44;;;-1.21;50.26
44027;BME280;29696;55.698;37.460;2023-03-01T13:29:58;98949.78;;;-1.22;50.50
44027;BME280;29696;55.698;37.460;2023-03-01T13:32:33;98950.94;;;-1.27;50.12
44027;BME280;29696;55.698;37.460;2023-03-01T13:38:46;98941.34;;;-1.25;50.82
44027;BME280;29696;55.698;37.460;2023-03-01T13:42:03;98947.50;;;-1.28;51.15
44027;BME280;29696;55.698;37.460;2023-03-01T13:44:49;98946.13;;;-1.52;51.25
44027;BME280;29696;55.698;37.460;2023-03-01T13:47:17;98930.03;;;-1.59;51.15
44027;BME280;29696;55.698;37.460;2023-03-01T13:49:58;98930.13;;;-1.61;51.53
44027;BME280;29696;55.698;37.460;2023-03-01T13:53:02;98941.47;;;-1.63;51.67
44027;BME280;29696;55.698;37.460;2023-03-01T13:55:52;98944.66;;;-1.75;52.60
44027;BME280;29696;55.698;37.460;2023-03-01T13:58:31;98935.03;;;-1.91;52.95
44027;BME280;29696;55.698;37.460;2023-03-01T14:01:04;98936.06;;;-1.95;52.74
44027;BME280;29696;55.698;37.460;2023-03-01T14:03:39;98932.78;;;-1.98;52.43
44027;BME280;29696;55.698;37.460;2023-03-01T14:06:13;98937.06;;;-1.97;52.77
44027;BME280;29696;55.698;37.460;2023-03-01T14:08:39;98926.09;;;-2.02;52.58
44027;BME280;29696;55.698;37.460;2023-03-01T14:11:33;98922.91;;;-1.90;53.12
44027;BME280;29696;55.698;37.460;2023-03-01T14:20:07;98908.75;;;-2.00;53.07
44027;BME280;29696;55.698;37.460;2023-03-01T14:22:35;98906.66;;;-2.11;53.18
44027;BME280;29696;55.698;37.460;2023-03-01T14:25:29;98908.50;;;-1.96;52.98
44027;BME280;29696;55.698;37.460;2023-03-01T14:28:13;98907.97;;;-2.02;53.12
44027;BME280;29696;55.698;37.460;2023-03-01T14:30:43;98901.53;;;-2.13;53.21
44027;BME280;29696;55.698;37.460;2023-03-01T14:33:31;98906.41;;;-2.07;53.97
44027;BME280;29696;55.698;37.460;2023-03-01T14:36:10;98906.16;;;-2.19;53.79
44027;BME280;29696;55.698;37.460;2023-03-01T14:38:40;98898.69;;;-2.25;53.67
44027;BME280;29696;55.698;37.460;2023-03-01T14:41:20;98900.25;;;-2.21;54.16
44027;BME280;29696;55.698;37.460;2023-03-01T14:43:50;98893.59;;;-2.27;53.92
44027;BME280;29696;55.698;37.460;2023-03-01T14:46:37;98889.16;;;-2.25;54.35
44027;BME280;29696;55.698;37.460;2023-03-01T14:49:17;98891.00;;;-2.27;54.60
44027;BME280;29696;55.698;37.460;2023-03-01T14:52:23;98895.25;;;-2.26;54.46
44027;BME280;29696;55.698;37.460;2023-03-01T14:54:53;98891.63;;;-2.41;54.88
44027;BME280;29696;55.698;37.460;2023-03-01T14:57:26;98886.53;;;-2.42;55.19
44027;BME280;29696;55.698;37.460;2023-03-01T14:59:58;98891.50;;;-2.38;55.73
44027;BME280;29696;55.698;37.460;2023-03-01T15:02:28;98896.81;;;-2.41;56.20